Time;durP1;ratioP1;P1;durP2;ratioP2;P2;SDS_P1;SDS_P2;PMS_P1;PMS_P2;Temp;Humidity;BMP_temperature;BMP_pressure;BME280_temperature;BME280_humidity;BME280_pressure;Samples;Min_cycle;Max_cycle;Signal;HPM_P1;HPM_P2
2021/07/11 00:01:30;;;;;;;11.07;10.17;;;16.50;98.40;;;;;;5040743;28;20528;-78
2021/07/11 00:03:57;;;;;;;10.23;9.10;;;16.50;98.70;;;;;;5039520;28;20449;-78
2021/07/11 00:06:24;;;;;;;9.80;9.10;;;16.50;98.30;;;;;;5044457;28;20477;-77
2021/07/11 00:08:52;;;;;;;11.00;10.20;;;16.50;98.00;;;;;;5051594;28;20461;-78
2021/07/11 00:11:19;;;;;;;10.60;9.67;;;16.50;98.20;;;;;;5033565;28;20523;-78
2021/07/11 00:13:46;;;;;;;11.10;10.10;;;16.50;98.60;;;;;;5043312;28;20464;-78
2021/07/11 00:16:13;;;;;;;14.53;13.17;;;16.60;99.90;;;;;;5041837;28;20473;-78
2021/07/11 00:18:39;;;;;;;15.77;14.33;;;16.80;98.40;;;;;;5044873;28;20464;-78
2021/07/11 00:21:08;;;;;;;17.30;15.83;;;16.80;97.50;;;;;;5033784;28;20487;-78
2021/07/11 00:23:34;;;;;;;16.70;15.10;;;16.80;96.90;;;;;;5043534;28;20457;-78
2021/07/11 00:26:03;;;;;;;14.70;13.47;;;16.80;97.10;;;;;;5038627;28;20538;-78
2021/07/11 00:28:29;;;;;;;16.20;14.70;;;16.80;97.30;;;;;;5038076;28;20450;-79
2021/07/11 00:30:56;;;;;;;15.83;14.47;;;16.80;96.70;;;;;;5036191;28;20512;-78
2021/07/11 00:33:23;;;;;;;15.30;14.00;;;16.80;96.30;;;;;;5036463;28;20457;-78
2021/07/11 00:35:50;;;;;;;15.03;13.63;;;16.80;95.40;;;;;;5048065;28;21659;-78
2021/07/11 00:38:17;;;;;;;13.40;12.30;;;16.90;95.40;;;;;;5047085;28;20520;-78
2021/07/11 00:40:43;;;;;;;13.87;12.50;;;16.90;94.70;;;;;;5050010;28;20503;-78
2021/07/11 00:43:13;;;;;;;14.10;12.63;;;16.90;94.60;;;;;;5045224;28;20553;-78
2021/07/11 00:45:40;;;;;;;13.10;12.00;;;16.90;93.90;;;;;;5047347;28;20441;-78
2021/07/11 00:48:08;;;;;;;12.90;11.70;;;16.90;93.30;;;;;;5050423;28;20485;-78
2021/07/11 00:50:35;;;;;;;12.20;11.10;;;17.00;92.40;;;;;;5038237;28;20489;-78
2021/07/11 00:53:07;;;;;;;10.43;9.67;;;17.10;91.90;;;;;;5045971;28;20563;-78
2021/07/11 00:55:35;;;;;;;11.23;10.33;;;17.10;91.60;;;;;;5046333;28;20472;-78
2021/07/11 00:58:02;;;;;;;11.73;10.80;;;17.10;91.50;;;;;;5046415;28;20594;-78
2021/07/11 01:00:31;;;;;;;10.10;9.27;;;17.10;91.60;;;;;;5036915;28;21205;-78
2021/07/11 01:03:06;;;;;;;10.30;9.50;;;17.10;91.30;;;;;;5035956;28;20456;-78
2021/07/11 01:05:33;;;;;;;12.33;11.13;;;17.10;91.40;;;;;;5041557;28;20960;-77
2021/07/11 01:08:05;;;;;;;11.30;10.30;;;16.90;91.80;;;;;;5044302;28;20966;-79
2021/07/11 01:10:39;;;;;;;10.20;9.40;;;16.80;92.20;;;;;;5039799;28;20565;-78
2021/07/11 01:13:09;;;;;;;9.77;8.90;;;16.80;93.00;;;;;;5040076;28;20449;-78
2021/07/11 01:15:38;;;;;;;10.53;9.63;;;16.60;93.50;;;;;;5051421;28;20484;-77
2021/07/11 01:18:07;;;;;;;9.90;9.10;;;16.70;93.70;;;;;;5048656;28;20469;-78
2021/07/11 01:20:43;;;;;;;10.10;9.20;;;16.60;93.70;;;;;;5044709;28;20510;-78
2021/07/11 01:23:13;;;;;;;9.90;9.00;;;16.70;93.70;;;;;;5050798;28;20812;-78
2021/07/11 01:25:44;;;;;;;9.23;8.63;;;16.70;94.00;;;;;;5041195;28;20489;-78
2021/07/11 01:28:17;;;;;;;8.73;8.00;;;16.80;94.30;;;;;;5034104;28;20527;-77
2021/07/11 01:30:45;;;;;;;8.87;8.27;;;16.80;94.40;;;;;;5051349;28;20480;-77
2021/07/11 01:33:12;;;;;;;8.10;7.50;;;16.80;94.50;;;;;;5048672;28;20443;-78
2021/07/11 01:35:41;;;;;;;7.20;6.60;;;16.90;95.20;;;;;;5045242;28;20549;-78
2021/07/11 01:38:09;;;;;;;8.20;7.60;;;16.90;95.10;;;;;;5044036;28;20479;-78
2021/07/11 01:40:37;;;;;;;7.53;6.80;;;17.00;95.30;;;;;;5050505;28;20492;-78
2021/07/11 01:43:06;;;;;;;7.50;6.77;;;17.00;95.50;;;;;;5046642;28;20565;-78
2021/07/11 01:45:33;;;;;;;7.23;6.70;;;17.00;95.70;;;;;;5048187;28;20951;-77
2021/07/11 01:48:00;;;;;;;7.10;6.50;;;17.00;95.70;;;;;;5051186;28;20496;-78
2021/07/11 01:50:28;;;;;;;7.40;6.80;;;17.00;95.70;;;;;;5037318;28;20488;-78
2021/07/11 01:52:55;;;;;;;6.90;6.40;;;16.90;95.90;;;;;;5047578;28;20539;-78
2021/07/11 01:55:25;;;;;;;7.20;6.70;;;17.00;96.00;;;;;;5034338;28;20461;-78
2021/07/11 01:57:52;;;;;;;6.10;5.70;;;16.90;96.20;;;;;;5049795;28;20466;-78
2021/07/11 02:00:21;;;;;;;6.80;6.30;;;16.90;96.80;;;;;;5035497;28;20442;-78
2021/07/11 02:02:50;;;;;;;6.17;5.67;;;17.00;97.20;;;;;;5044241;28;20454;-79
2021/07/11 02:05:18;;;;;;;6.43;5.93;;;17.00;97.00;;;;;;5044322;28;20456;-79
2021/07/11 02:07:45;;;;;;;6.20;5.70;;;17.10;97.30;;;;;;5047347;28;20451;-78
2021/07/11 02:10:15;;;;;;;6.63;6.13;;;17.10;97.00;;;;;;5043830;28;20534;-77
2021/07/11 02:12:47;;;;;;;6.40;5.90;;;17.10;96.70;;;;;;5047157;28;20960;-78
2021/07/11 02:15:15;;;;;;;5.20;4.90;;;17.20;96.40;;;;;;5046107;28;20950;-77
2021/07/11 02:17:48;;;;;;;5.70;5.30;;;17.20;96.20;;;;;;5041731;28;20585;-78
2021/07/11 02:20:15;;;;;;;4.97;4.63;;;17.30;96.00;;;;;;5040428;28;20477;-77
2021/07/11 02:22:45;;;;;;;4.83;4.53;;;17.40;96.10;;;;;;5041149;28;20540;-77
2021/07/11 02:25:17;;;;;;;4.87;4.47;;;17.40;96.00;;;;;;5043058;28;20447;-77
2021/07/11 02:27:45;;;;;;;4.30;4.00;;;17.50;96.00;;;;;;5043376;28;20538;-78
2021/07/11 02:30:16;;;;;;;3.80;3.50;;;17.50;96.20;;;;;;5041327;28;20442;-77
2021/07/11 02:32:45;;;;;;;3.93;3.33;;;17.50;96.20;;;;;;5044808;28;20469;-77
2021/07/11 02:35:15;;;;;;;3.40;3.20;;;17.50;96.60;;;;;;5039395;28;20574;-77
2021/07/11 02:37:48;;;;;;;3.00;2.80;;;17.50;96.70;;;;;;5046770;28;20549;-77
2021/07/11 02:40:15;;;;;;;3.27;3.07;;;17.50;96.90;;;;;;5053173;28;20529;-77
2021/07/11 02:42:43;;;;;;;3.57;3.27;;;17.50;97.40;;;;;;5047063;28;20456;-78
2021/07/11 02:45:12;;;;;;;3.47;3.10;;;17.50;98.70;;;;;;5050768;28;20555;-78
2021/07/11 02:47:42;;;;;;;3.53;3.33;;;17.50;98.70;;;;;;5058511;28;20541;-79
2021/07/11 02:50:14;;;;;;;3.10;2.90;;;17.50;99.90;;;;;;5051973;28;20452;-79
2021/07/11 02:52:43;;;;;;;3.07;2.87;;;17.40;99.90;;;;;;5057789;28;20576;-77
2021/07/11 02:55:13;;;;;;;3.50;3.30;;;17.40;99.90;;;;;;5054827;28;20442;-78
2021/07/11 02:57:44;;;;;;;3.37;2.70;;;17.40;99.80;;;;;;5055347;28;20480;-77
2021/07/11 03:00:12;;;;;;;3.30;3.10;;;17.40;99.90;;;;;;5051312;28;20486;-78
2021/07/11 03:02:40;;;;;;;2.90;2.70;;;17.40;99.90;;;;;;5050536;28;20964;-78
2021/07/11 03:05:12;;;;;;;3.17;2.97;;;17.50;99.40;;;;;;5044746;28;20932;-78
2021/07/11 03:07:40;;;;;;;3.77;3.47;;;17.40;98.90;;;;;;5045445;28;20446;-78
2021/07/11 03:10:09;;;;;;;3.40;3.07;;;17.40;99.30;;;;;;5053521;28;20474;-78
2021/07/11 03:12:36;;;;;;;3.40;3.20;;;17.50;99.40;;;;;;5038897;28;20948;-78
2021/07/11 03:15:05;;;;;;;3.30;3.00;;;17.40;99.30;;;;;;5036351;28;20450;-78
2021/07/11 03:17:33;;;;;;;3.10;2.90;;;17.40;99.50;;;;;;5035980;28;20562;-78
2021/07/11 03:20:01;;;;;;;3.07;2.87;;;17.40;99.00;;;;;;5037286;28;20480;-78
2021/07/11 03:22:31;;;;;;;3.30;3.10;;;17.40;98.80;;;;;;5037999;28;21081;-79
2021/07/11 03:24:59;;;;;;;5.80;3.53;;;17.40;98.70;;;;;;5043480;28;20453;-79
2021/07/11 03:27:29;;;;;;;3.80;3.60;;;17.30;99.20;;;;;;5048159;28;20534;-78
2021/07/11 03:30:02;;;;;;;5.03;4.37;;;17.20;99.00;;;;;;5042982;28;20482;-78
2021/07/11 03:32:30;;;;;;;4.43;4.13;;;17.30;99.00;;;;;;5049133;28;20794;-79
2021/07/11 03:35:00;;;;;;;4.17;3.87;;;17.20;98.90;;;;;;5046794;28;20461;-78
2021/07/11 03:37:28;;;;;;;4.50;4.10;;;17.20;99.80;;;;;;5046738;28;20443;-79
2021/07/11 03:39:58;;;;;;;4.00;3.80;;;17.10;99.90;;;;;;5045872;28;20543;-79
2021/07/11 03:42:26;;;;;;;4.80;4.40;;;17.10;99.90;;;;;;5039824;28;20534;-79
2021/07/11 03:44:59;;;;;;;5.00;4.60;;;17.10;99.90;;;;;;5038722;28;20565;-78
2021/07/11 03:47:30;;;;;;;4.87;3.90;;;17.10;99.90;;;;;;5050195;28;20456;-78
2021/07/11 03:49:57;;;;;;;4.33;4.03;;;17.10;99.90;;;;;;5042730;28;20490;-79
2021/07/11 03:52:28;;;;;;;5.07;4.67;;;17.00;99.90;;;;;;5046230;28;20584;-78
2021/07/11 03:55:00;;;;;;;4.77;4.47;;;16.90;99.90;;;;;;5067800;28;20490;-79
2021/07/11 03:57:28;;;;;;;4.67;4.37;;;17.00;99.90;;;;;;5066333;28;20467;-80
2021/07/11 03:59:56;;;;;;;4.47;4.07;;;17.00;99.90;;;;;;5066241;28;20557;-80
2021/07/11 04:02:28;;;;;;;4.60;4.30;;;17.00;99.90;;;;;;5061030;28;20538;-79
2021/07/11 04:04:56;;;;;;;4.53;4.13;;;16.90;99.90;;;;;;5060554;28;20509;-79
2021/07/11 04:07:24;;;;;;;5.47;5.07;;;16.90;99.90;;;;;;5041668;28;20545;-80
2021/07/11 04:09:52;;;;;;;4.80;4.50;;;16.90;99.90;;;;;;5052004;28;20439;-80
2021/07/11 04:12:20;;;;;;;4.97;4.60;;;16.90;99.90;;;;;;5060817;28;20524;-80
2021/07/11 04:14:47;;;;;;;5.00;4.60;;;16.90;99.90;;;;;;5045707;28;20478;-77
2021/07/11 04:17:15;;;;;;;4.87;4.47;;;16.90;99.90;;;;;;5048903;28;20526;-79
2021/07/11 04:19:43;;;;;;;5.00;4.67;;;16.90;99.90;;;;;;5048672;28;21030;-79
2021/07/11 04:22:13;;;;;;;7.20;4.97;;;16.90;99.90;;;;;;5049137;28;20464;-77
2021/07/11 04:24:42;;;;;;;4.43;4.20;;;16.90;99.90;;;;;;5042633;28;20453;-78
2021/07/11 04:27:10;;;;;;;5.10;4.60;;;16.90;99.90;;;;;;5041099;28;20474;-77
2021/07/11 04:29:38;;;;;;;5.17;4.70;;;16.90;99.90;;;;;;5047831;28;20812;-78
2021/07/11 04:32:05;;;;;;;4.40;4.00;;;16.90;99.90;;;;;;5054237;28;20442;-78
2021/07/11 04:34:34;;;;;;;4.80;4.50;;;16.90;99.90;;;;;;5036659;28;20955;-78
2021/07/11 04:37:04;;;;;;;5.60;5.10;;;16.80;99.90;;;;;;5038707;28;20458;-78
2021/07/11 04:39:31;;;;;;;4.33;4.10;;;16.80;99.90;;;;;;5035798;28;20490;-78
2021/07/11 04:41:59;;;;;;;4.30;4.00;;;16.90;99.90;;;;;;5037240;28;20465;-79
2021/07/11 04:44:27;;;;;;;5.20;4.80;;;16.90;99.90;;;;;;5037185;28;20446;-78
2021/07/11 04:46:55;;;;;;;4.60;4.23;;;16.90;99.90;;;;;;5037466;28;20452;-79
2021/07/11 04:49:22;;;;;;;4.50;4.20;;;16.90;99.90;;;;;;5036740;28;20453;-78
2021/07/11 04:51:49;;;;;;;4.90;4.50;;;16.80;99.90;;;;;;5035419;28;21290;-79
2021/07/11 04:54:16;;;;;;;4.43;4.03;;;16.80;99.90;;;;;;5038682;28;20986;-79
2021/07/11 04:56:44;;;;;;;5.43;4.93;;;16.90;99.90;;;;;;5038170;28;20455;-77
2021/07/11 04:59:10;;;;;;;5.10;4.70;;;16.80;99.90;;;;;;5035845;28;20565;-78
2021/07/11 05:01:37;;;;;;;5.30;4.73;;;16.90;99.90;;;;;;5040193;28;20521;-78
2021/07/11 05:04:05;;;;;;;4.47;4.10;;;16.90;99.90;;;;;;5042566;28;20530;-78
2021/07/11 05:06:32;;;;;;;5.10;4.60;;;17.00;99.90;;;;;;5036114;28;20790;-78
2021/07/11 05:09:00;;;;;;;5.40;4.40;;;17.00;99.90;;;;;;5050274;28;20546;-78
2021/07/11 05:11:27;;;;;;;4.90;4.40;;;17.00;99.90;;;;;;5052673;28;20782;-78
2021/07/11 05:13:54;;;;;;;4.20;3.93;;;17.10;99.90;;;;;;5051281;28;20454;-79
2021/07/11 05:16:22;;;;;;;4.63;4.23;;;17.20;99.90;;;;;;5039134;28;20543;-78
2021/07/11 05:18:48;;;;;;;4.33;3.93;;;17.10;99.10;;;;;;5039372;28;20475;-78
2021/07/11 05:21:17;;;;;;;4.37;3.97;;;17.10;99.60;;;;;;5046473;28;20466;-78
2021/07/11 05:23:44;;;;;;;5.37;3.80;;;17.20;99.10;;;;;;5048652;28;20571;-78
2021/07/11 05:26:10;;;;;;;4.27;3.57;;;17.10;98.40;;;;;;5037731;28;20499;-79
2021/07/11 05:28:39;;;;;;;3.70;3.40;;;17.30;98.20;;;;;;5043524;28;20453;-79
2021/07/11 05:31:06;;;;;;;3.70;3.40;;;17.30;96.30;;;;;;5036146;28;20865;-78
2021/07/11 05:33:33;;;;;;;3.23;3.03;;;17.30;95.70;;;;;;5045526;28;20480;-79
2021/07/11 05:36:00;;;;;;;3.00;2.70;;;17.40;95.40;;;;;;5041238;28;20607;-77
2021/07/11 05:38:28;;;;;;;4.97;3.00;;;17.50;95.10;;;;;;5031640;28;20571;-78
2021/07/11 05:40:55;;;;;;;3.30;3.10;;;17.50;94.90;;;;;;5037735;28;20553;-79
2021/07/11 05:43:22;;;;;;;2.87;2.63;;;17.60;94.40;;;;;;5032247;28;20479;-78
2021/07/11 05:45:49;;;;;;;2.93;2.73;;;17.60;95.00;;;;;;5035732;28;20457;-78
2021/07/11 05:48:16;;;;;;;2.37;2.17;;;17.70;94.40;;;;;;5036682;28;20760;-77
2021/07/11 05:50:43;;;;;;;2.90;2.20;;;17.50;93.10;;;;;;5037649;28;20487;-77
2021/07/11 05:53:10;;;;;;;2.63;2.13;;;17.40;93.30;;;;;;5041029;28;20560;-78
2021/07/11 05:55:38;;;;;;;1.90;1.80;;;17.30;94.10;;;;;;5035798;28;20447;-78
2021/07/11 05:58:06;;;;;;;2.80;2.00;;;17.10;94.60;;;;;;5040665;28;20463;-78
2021/07/11 06:00:33;;;;;;;1.83;1.73;;;17.10;95.10;;;;;;5044213;28;20578;-78
2021/07/11 06:03:00;;;;;;;2.07;1.87;;;17.10;94.20;;;;;;5043342;28;20546;-78
2021/07/11 06:05:27;;;;;;;2.10;2.00;;;17.30;93.70;;;;;;5043199;28;20971;-79
2021/07/11 06:07:54;;;;;;;1.80;1.43;;;17.40;93.80;;;;;;5046392;28;20581;-79
2021/07/11 06:10:21;;;;;;;1.60;1.50;;;17.50;92.60;;;;;;5045944;28;20559;-78
2021/07/11 06:12:49;;;;;;;1.77;1.67;;;17.60;93.20;;;;;;5044126;28;20534;-78
2021/07/11 06:15:16;;;;;;;1.90;1.80;;;17.70;91.50;;;;;;5041294;28;20458;-78
2021/07/11 06:17:43;;;;;;;1.60;1.50;;;17.80;91.30;;;;;;5043688;28;21002;-78
2021/07/11 06:20:12;;;;;;;1.73;1.63;;;17.80;90.90;;;;;;5041490;28;20936;-78
2021/07/11 06:22:39;;;;;;;2.77;1.30;;;18.00;91.20;;;;;;5037910;28;20467;-79
2021/07/11 06:25:07;;;;;;;1.67;1.20;;;18.20;91.00;;;;;;5043605;28;20544;-78
2021/07/11 06:27:35;;;;;;;2.07;1.53;;;18.40;90.40;;;;;;5041285;28;20471;-77
2021/07/11 06:30:05;;;;;;;1.50;1.40;;;18.50;89.80;;;;;;5037598;28;20532;-79
2021/07/11 06:32:32;;;;;;;2.10;1.30;;;18.50;89.70;;;;;;5041957;28;20466;-79
2021/07/11 06:34:59;;;;;;;1.53;1.43;;;18.50;89.20;;;;;;5045561;28;21226;-78
2021/07/11 06:37:26;;;;;;;1.67;1.43;;;18.40;88.40;;;;;;5041825;28;20488;-78
2021/07/11 06:39:52;;;;;;;2.60;1.63;;;18.50;90.00;;;;;;5039972;28;20510;-78
2021/07/11 06:42:19;;;;;;;1.17;1.17;;;18.60;89.90;;;;;;5044725;28;20476;-78
2021/07/11 06:44:46;;;;;;;1.67;1.57;;;18.80;88.20;;;;;;5042117;28;20483;-79
2021/07/11 06:47:14;;;;;;;1.93;1.40;;;18.70;87.50;;;;;;5038159;28;20592;-79
2021/07/11 06:49:41;;;;;;;1.50;1.40;;;18.70;87.90;;;;;;5039177;28;20452;-78
2021/07/11 06:52:08;;;;;;;1.83;1.73;;;18.70;88.00;;;;;;5040332;28;20460;-79
2021/07/11 06:54:35;;;;;;;1.60;1.50;;;18.70;88.00;;;;;;5050233;28;20529;-78
2021/07/11 06:57:02;;;;;;;1.63;1.53;;;18.60;87.90;;;;;;5041380;28;20544;-80
2021/07/11 06:59:29;;;;;;;1.77;1.67;;;18.50;87.80;;;;;;5044490;28;20569;-80
2021/07/11 07:01:55;;;;;;;1.80;1.70;;;18.30;88.30;;;;;;5040276;28;20542;-79
2021/07/11 07:04:24;;;;;;;2.50;2.20;;;18.30;89.70;;;;;;5038405;28;20508;-78
2021/07/11 07:06:51;;;;;;;1.93;1.83;;;18.00;90.10;;;;;;5039376;28;21328;-77
2021/07/11 07:09:18;;;;;;;1.90;1.57;;;17.90;90.40;;;;;;5041580;28;20457;-78
2021/07/11 07:11:45;;;;;;;1.87;1.70;;;17.80;90.90;;;;;;5045089;28;20456;-79
2021/07/11 07:14:12;;;;;;;2.73;2.00;;;17.90;91.90;;;;;;5039903;28;20535;-79
2021/07/11 07:16:39;;;;;;;2.17;1.70;;;18.10;91.60;;;;;;5041778;28;20618;-80
2021/07/11 07:19:06;;;;;;;2.63;2.27;;;18.10;91.20;;;;;;5038788;28;20472;-79
2021/07/11 07:21:35;;;;;;;2.30;2.10;;;18.20;91.70;;;;;;5043223;28;20514;-77
2021/07/11 07:24:02;;;;;;;2.10;2.00;;;18.00;91.40;;;;;;5045348;28;21339;-78
2021/07/11 07:26:28;;;;;;;2.00;1.90;;;18.00;92.00;;;;;;5045094;28;20456;-78
2021/07/11 07:28:55;;;;;;;2.00;1.80;;;18.10;91.70;;;;;;5037480;28;20892;-79
2021/07/11 07:31:22;;;;;;;2.00;1.90;;;18.20;91.90;;;;;;5042878;28;20541;-79
2021/07/11 07:33:49;;;;;;;3.30;2.00;;;18.40;91.30;;;;;;5043276;28;20525;-79
2021/07/11 07:36:16;;;;;;;3.07;2.30;;;18.40;90.20;;;;;;5046039;28;20576;-79
2021/07/11 07:38:44;;;;;;;2.03;1.93;;;18.50;90.30;;;;;;5042911;28;21089;-79
2021/07/11 07:41:11;;;;;;;2.60;2.40;;;18.60;90.60;;;;;;5049544;28;20452;-78
2021/07/11 07:43:38;;;;;;;2.40;2.13;;;18.70;90.60;;;;;;5045193;28;20448;-78
2021/07/11 07:46:05;;;;;;;2.10;2.00;;;18.50;90.70;;;;;;5049141;28;20453;-78
2021/07/11 07:48:32;;;;;;;3.23;2.47;;;18.30;90.70;;;;;;5041952;28;20445;-78
2021/07/11 07:50:59;;;;;;;2.40;2.30;;;18.20;91.80;;;;;;5046150;28;20466;-78
2021/07/11 07:53:26;;;;;;;2.40;2.30;;;18.40;91.90;;;;;;5041425;28;20772;-78
2021/07/11 07:55:54;;;;;;;2.10;2.00;;;18.50;91.20;;;;;;5047550;28;20978;-79
2021/07/11 07:58:21;;;;;;;2.33;2.20;;;18.50;91.70;;;;;;5051895;28;20462;-79
2021/07/11 08:00:48;;;;;;;2.43;2.27;;;18.50;91.30;;;;;;5041966;28;20465;-78
2021/07/11 08:03:15;;;;;;;2.00;1.90;;;18.60;91.00;;;;;;5040100;28;20496;-79
2021/07/11 08:05:42;;;;;;;2.37;2.27;;;18.80;90.80;;;;;;5038120;28;20488;-79
2021/07/11 08:08:10;;;;;;;2.07;1.87;;;18.90;90.10;;;;;;5045888;28;20477;-79
2021/07/11 08:10:37;;;;;;;2.60;2.40;;;18.90;90.50;;;;;;5039736;28;20502;-79
2021/07/11 08:13:06;;;;;;;2.83;2.63;;;18.50;90.50;;;;;;5047225;28;20502;-78
2021/07/11 08:15:33;;;;;;;2.43;2.23;;;18.60;91.40;;;;;;5044463;28;20453;-79
2021/07/11 08:18:00;;;;;;;2.30;2.20;;;18.60;91.00;;;;;;5052798;28;20510;-79
2021/07/11 08:20:28;;;;;;;2.53;2.37;;;18.70;90.50;;;;;;5050702;28;20574;-79
2021/07/11 08:22:55;;;;;;;3.00;2.80;;;19.00;90.40;;;;;;5047394;28;20526;-79
2021/07/11 08:25:22;;;;;;;2.50;2.30;;;19.20;90.30;;;;;;5051892;28;20523;-79
2021/07/11 08:27:49;;;;;;;2.50;2.30;;;19.60;89.20;;;;;;5049977;28;20475;-78
2021/07/11 08:30:19;;;;;;;2.20;2.10;;;19.70;87.70;;;;;;5046374;28;20469;-79
2021/07/11 08:32:47;;;;;;;2.73;2.53;;;19.40;85.60;;;;;;5056753;28;20468;-79
2021/07/11 08:35:14;;;;;;;2.70;2.50;;;19.10;87.40;;;;;;5051880;28;20505;-80
2021/07/11 08:37:41;;;;;;;2.97;2.77;;;18.90;89.50;;;;;;5045447;28;20460;-80
2021/07/11 08:40:11;;;;;;;4.63;2.60;;;18.80;90.30;;;;;;5047797;28;20523;-79
2021/07/11 08:42:40;;;;;;;4.47;2.87;;;18.80;90.30;;;;;;5052431;28;20964;-79
2021/07/11 08:45:09;;;;;;;2.90;2.70;;;18.60;89.20;;;;;;5040199;28;20535;-79
2021/07/11 08:47:38;;;;;;;3.20;2.90;;;18.60;90.90;;;;;;5045615;28;20448;-78
2021/07/11 08:50:07;;;;;;;2.67;2.47;;;18.50;90.70;;;;;;5046334;28;20453;-78
2021/07/11 08:52:35;;;;;;;3.07;2.80;;;18.60;90.50;;;;;;5041313;28;20941;-79
2021/07/11 08:55:02;;;;;;;3.23;2.97;;;18.70;90.40;;;;;;5045749;28;20555;-78
2021/07/11 08:57:29;;;;;;;3.40;3.10;;;18.90;90.40;;;;;;5036947;28;21081;-78
2021/07/11 08:59:56;;;;;;;4.17;2.90;;;18.90;90.10;;;;;;5034167;28;20588;-78
2021/07/11 09:02:23;;;;;;;2.80;2.60;;;18.90;90.40;;;;;;5036957;28;20453;-79
2021/07/11 09:04:52;;;;;;;3.20;2.90;;;18.90;90.30;;;;;;5038734;28;20459;-78
2021/07/11 09:07:21;;;;;;;3.00;2.80;;;18.80;90.30;;;;;;5035729;28;20494;-78
2021/07/11 09:09:55;;;;;;;3.33;3.03;;;18.90;90.70;;;;;;5036992;28;20543;-78
2021/07/11 09:12:22;;;;;;;4.37;4.07;;;18.90;91.00;;;;;;5040111;28;21995;-79
2021/07/11 09:14:49;;;;;;;3.40;3.20;;;18.90;91.20;;;;;;5047557;28;20450;-78
2021/07/11 09:17:16;;;;;;;2.80;2.60;;;19.00;90.60;;;;;;5050649;28;20493;-79
2021/07/11 09:19:47;;;;;;;3.37;2.90;;;19.20;90.60;;;;;;5054277;28;20458;-79
2021/07/11 09:22:18;;;;;;;3.07;2.83;;;19.20;88.70;;;;;;5052286;28;20476;-78
2021/07/11 09:24:49;;;;;;;3.27;3.07;;;19.20;89.10;;;;;;5053576;28;20452;-77
2021/07/11 09:27:17;;;;;;;3.10;2.73;;;19.30;88.50;;;;;;5056041;28;20473;-78
2021/07/11 09:29:45;;;;;;;3.43;3.13;;;19.40;88.40;;;;;;5051537;28;21006;-77
2021/07/11 09:32:24;;;;;;;3.23;2.93;;;19.50;87.20;;;;;;5038411;28;20454;-78
2021/07/11 09:34:51;;;;;;;2.90;2.70;;;19.70;87.50;;;;;;5040682;28;20478;-79
2021/07/11 09:37:20;;;;;;;2.87;2.67;;;19.70;86.30;;;;;;5043220;28;20523;-78
2021/07/11 09:39:49;;;;;;;2.93;2.73;;;19.40;85.50;;;;;;5040138;28;20466;-77
2021/07/11 09:42:27;;;;;;;6.10;3.27;;;19.20;86.90;;;;;;5037659;28;20547;-78
2021/07/11 09:44:55;;;;;;;3.50;3.20;;;19.00;86.70;;;;;;5041175;28;20453;-79
2021/07/11 09:47:25;;;;;;;3.50;3.20;;;19.10;88.40;;;;;;5039936;28;20506;-78
2021/07/11 09:50:11;;;;;;;4.03;3.73;;;19.20;87.90;;;;;;5040120;28;20537;-78
2021/07/11 09:52:41;;;;;;;3.60;3.30;;;19.10;89.40;;;;;;5033776;28;20462;-78
2021/07/11 09:55:11;;;;;;;3.27;3.07;;;19.10;89.10;;;;;;5038305;28;20488;-77
2021/07/11 09:57:40;;;;;;;3.33;3.13;;;19.00;87.50;;;;;;5039926;28;20448;-79
2021/07/11 10:00:19;;;;;;;3.30;3.10;;;18.90;86.80;;;;;;5039717;28;20474;-78
2021/07/11 10:02:48;;;;;;;3.57;3.20;;;19.00;89.30;;;;;;5037270;28;20473;-76
2021/07/11 10:05:17;;;;;;;4.10;3.80;;;19.10;88.60;;;;;;5037749;28;20461;-79
2021/07/11 10:07:46;;;;;;;3.80;3.60;;;19.10;89.20;;;;;;5043581;28;20469;-78
2021/07/11 10:10:15;;;;;;;4.37;4.07;;;19.20;89.10;;;;;;5045434;28;20524;-79
2021/07/11 10:12:42;;;;;;;4.90;4.60;;;19.20;88.80;;;;;;5039050;28;20544;-78
2021/07/11 10:15:14;;;;;;;4.50;4.10;;;19.30;89.20;;;;;;5043022;28;20444;-79
2021/07/11 10:17:45;;;;;;;4.23;3.83;;;19.40;88.50;;;;;;5044659;28;20487;-78
2021/07/11 10:20:14;;;;;;;4.30;3.90;;;19.50;88.30;;;;;;5042263;28;20598;-81
2021/07/11 10:22:43;;;;;;;4.57;4.17;;;19.60;87.30;;;;;;5041749;28;20547;-80
2021/07/11 10:25:14;;;;;;;4.10;3.80;;;19.50;87.00;;;;;;5041436;28;20486;-78
2021/07/11 10:27:42;;;;;;;4.03;3.73;;;19.50;87.10;;;;;;5054629;28;20455;-78
2021/07/11 10:30:10;;;;;;;4.60;4.30;;;19.40;87.40;;;;;;5046995;28;20441;-80
2021/07/11 10:32:37;;;;;;;4.50;4.07;;;19.50;87.90;;;;;;5047252;28;20447;-81
2021/07/11 10:35:10;;;;;;;3.80;3.60;;;19.60;87.50;;;;;;5042191;28;20541;-78
2021/07/11 10:37:46;;;;;;;5.13;4.10;;;19.60;87.10;;;;;;5045255;28;20451;-77
2021/07/11 10:40:17;;;;;;;5.00;4.13;;;19.70;86.10;;;;;;5041983;28;20491;-79
2021/07/11 10:42:45;;;;;;;4.03;3.73;;;19.70;85.70;;;;;;5045186;28;20557;-78
2021/07/11 10:45:14;;;;;;;4.43;4.13;;;20.00;86.00;;;;;;5055584;28;20482;-79
2021/07/11 10:47:42;;;;;;;5.07;3.63;;;20.20;85.10;;;;;;5041350;28;22036;-79
2021/07/11 10:50:25;;;;;;;3.40;3.20;;;20.30;84.00;;;;;;5044159;28;20452;-78
2021/07/11 10:52:53;;;;;;;6.33;5.47;;;20.20;81.70;;;;;;5048039;28;20465;-78
2021/07/11 10:55:21;;;;;;;4.13;3.83;;;19.90;83.50;;;;;;5049749;28;20461;-79
2021/07/11 10:57:48;;;;;;;4.40;4.00;;;20.10;83.50;;;;;;5040680;28;20824;-80
2021/07/11 11:00:18;;;;;;;5.00;4.50;;;19.90;82.90;;;;;;5042470;28;20538;-79
2021/07/11 11:02:48;;;;;;;4.60;4.30;;;19.80;83.10;;;;;;5037924;28;20452;-78
2021/07/11 11:05:20;;;;;;;4.03;3.73;;;19.90;84.20;;;;;;5039628;28;20464;-79
2021/07/11 11:07:49;;;;;;;4.80;4.40;;;19.70;84.00;;;;;;5035113;28;20511;-80
2021/07/11 11:10:32;;;;;;;4.80;4.50;;;19.70;85.00;;;;;;5038409;28;20509;-79
2021/07/11 11:13:08;;;;;;;5.10;4.40;;;19.70;84.80;;;;;;5035137;28;20612;-78
2021/07/11 11:15:37;;;;;;;4.90;4.60;;;19.70;84.40;;;;;;5038092;28;20518;-77
2021/07/11 11:18:39;;;;;;;4.93;4.53;;;19.70;85.30;;;;;;5035896;28;20470;-79
2021/07/11 11:21:08;;;;;;;5.50;5.10;;;19.50;86.90;;;;;;5016755;28;20564;-79
2021/07/11 11:23:37;;;;;;;4.73;4.43;;;19.50;86.60;;;;;;5044611;28;20879;-78
2021/07/11 11:26:07;;;;;;;4.63;4.20;;;19.60;85.40;;;;;;5047378;28;20440;-79
2021/07/11 11:28:36;;;;;;;4.43;4.13;;;19.90;84.80;;;;;;5035375;28;20479;-78
2021/07/11 11:31:12;;;;;;;4.70;4.40;;;19.90;84.10;;;;;;5033350;28;20564;-78
2021/07/11 11:33:52;;;;;;;4.50;4.20;;;20.00;84.70;;;;;;5039513;28;20456;-78
2021/07/11 11:36:24;;;;;;;4.70;4.30;;;20.10;83.30;;;;;;5032490;28;20474;-78
2021/07/11 11:38:52;;;;;;;4.27;3.97;;;20.20;84.60;;;;;;5033139;28;20471;-78
2021/07/11 11:41:22;;;;;;;4.90;4.47;;;20.20;82.10;;;;;;5038831;28;20490;-78
2021/07/11 11:43:50;;;;;;;6.23;5.70;;;20.10;82.30;;;;;;5037286;28;20478;-78
2021/07/11 11:46:24;;;;;;;5.10;4.80;;;20.10;82.80;;;;;;5034949;28;20522;-78
2021/07/11 11:48:55;;;;;;;4.97;4.53;;;20.00;83.10;;;;;;5036093;28;21833;-78
2021/07/11 11:51:22;;;;;;;5.77;5.37;;;20.30;83.60;;;;;;5031047;28;20510;-78
2021/07/11 11:53:49;;;;;;;5.20;4.80;;;20.50;82.90;;;;;;5031056;28;20459;-78
2021/07/11 11:56:16;;;;;;;5.13;4.73;;;20.80;82.40;;;;;;5032869;28;20495;-78
2021/07/11 11:58:44;;;;;;;6.03;4.40;;;20.90;81.50;;;;;;5032330;28;21005;-79
2021/07/11 12:01:12;;;;;;;4.67;4.17;;;20.80;79.40;;;;;;5036119;28;20658;-79
2021/07/11 12:03:41;;;;;;;5.07;4.63;;;20.90;80.40;;;;;;5041908;28;21016;-79
2021/07/11 12:06:10;;;;;;;4.63;4.00;;;21.20;79.20;;;;;;5035874;28;20451;-78
2021/07/11 12:08:38;;;;;;;4.20;3.90;;;21.30;77.00;;;;;;5040681;28;20461;-78
2021/07/11 12:11:06;;;;;;;4.47;4.07;;;21.70;76.30;;;;;;5037333;28;20518;-78
2021/07/11 12:13:34;;;;;;;3.87;3.57;;;22.30;75.40;;;;;;5044654;28;20446;-78
2021/07/11 12:16:11;;;;;;;3.70;3.40;;;22.70;73.10;;;;;;5029596;28;20484;-78
2021/07/11 12:18:45;;;;;;;3.57;3.37;;;22.50;71.00;;;;;;5033611;28;20461;-78
2021/07/11 12:21:18;;;;;;;4.00;3.70;;;22.80;71.60;;;;;;5029866;28;20669;-78
2021/07/11 12:23:45;;;;;;;3.40;3.20;;;22.80;69.90;;;;;;5031171;28;20523;-78
2021/07/11 12:26:12;;;;;;;3.40;3.20;;;22.80;69.00;;;;;;5035396;28;21027;-78
2021/07/11 12:28:51;;;;;;;3.27;2.97;;;22.40;69.40;;;;;;5029545;28;20458;-79
2021/07/11 12:31:20;;;;;;;3.47;3.07;;;22.60;67.90;;;;;;5031865;28;20480;-78
2021/07/11 12:33:49;;;;;;;3.90;3.50;;;22.30;67.10;;;;;;5041596;28;20465;-79
2021/07/11 12:36:16;;;;;;;3.83;3.63;;;22.70;67.70;;;;;;5041625;28;20454;-79
2021/07/11 12:38:43;;;;;;;3.50;3.30;;;23.10;68.10;;;;;;5049024;28;20945;-79
2021/07/11 12:41:11;;;;;;;4.70;4.30;;;23.30;68.40;;;;;;5049367;28;20536;-79
2021/07/11 12:43:47;;;;;;;5.03;4.63;;;23.40;69.50;;;;;;5050874;28;20462;-80
2021/07/11 12:46:17;;;;;;;3.77;3.47;;;23.60;67.50;;;;;;5048493;28;20481;-80
2021/07/11 12:48:47;;;;;;;4.67;4.37;;;23.60;67.40;;;;;;5043913;28;20462;-77
2021/07/11 12:51:17;;;;;;;5.13;4.80;;;23.40;67.80;;;;;;5045181;28;20454;-79
2021/07/11 12:53:44;;;;;;;4.37;4.07;;;23.10;68.60;;;;;;5036225;28;20865;-79